logo
Rechercher aéroport 
image banner adimage banner adimage banner ad
image banner ad

EDLP - Paderborn/Lippstadt

Situé à Paderborn, Germany

ICAO - EDLP, IATA - PAD

Données fournies par Airmate  

Information générale

Coordonnées: N51°36'51" E8°36'59"
Élévation : 699 feet MSL.
Variation magnétique : 2.1000° East
Évalué:
Voir évaluations:
[VIEW]
Voir autres Aéroports à North Rhine-Westphalia

Données opérationnelles

Special qualification required
Heure actuelle UTC:
Heure actuelle locale:
Météo
METAR: EDLP 281220Z 25003KT 220V310 6000 FEW013 SCT015 07/03 Q1022
TAF: TAF EDLP 281100Z 2812/2912 26004KT 9999 SCT015 BECMG 2817/2820 17006KT BECMG 2904/2907 17011KT
Voir NOTAMs / SUP AIP / TFR affectant cet aéroport [VIEW]
Fréquences de communication: [VIEW]

Pistes:

Identifiant RWYQFULongueur (ft)Largeur (ft)SurfaceLDA (ft)
0657°7152148ASPH7152
24237°7152148ASPH7152

Coordonnées de l'aéroport

Adresse: Paderborn Germany

Handlers

Paderborn/Lippstadt Airport

Paderborn/Lippstadt Airport

Vue satellite de EDLP